sensor_id;sensor_type;location;lat;lon;timestamp;pressure;altitude;pressure_sealevel;temperature;humidity
80542;BME280;69870;51.460;8.842;2023-12-04T00:01:25;98589.66;;;-1.25;76.80
80542;BME280;69870;51.460;8.842;2023-12-04T00:03:53;98576.31;;;-1.20;77.06
80542;BME280;69870;51.460;8.842;2023-12-04T00:06:21;98580.84;;;-1.26;77.16
80542;BME280;69870;51.460;8.842;2023-12-04T00:08:47;98570.19;;;-1.26;77.20
80542;BME280;69870;51.460;8.842;2023-12-04T00:11:14;98564.03;;;-1.21;77.14
80542;BME280;69870;51.460;8.842;2023-12-04T00:13:41;98569.13;;;-1.25;76.64
80542;BME280;69870;51.460;8.842;2023-12-04T00:16:08;98556.56;;;-1.24;76.77
80542;BME280;69870;51.460;8.842;2023-12-04T00:18:35;98562.19;;;-1.26;76.90
80542;BME280;69870;51.460;8.842;2023-12-04T00:21:03;98551.28;;;-1.29;77.09
80542;BME280;69870;51.460;8.842;2023-12-04T00:23:30;98552.03;;;-1.24;76.54
80542;BME280;69870;51.460;8.842;2023-12-04T00:25:57;98552.84;;;-1.28;77.64
80542;BME280;69870;51.460;8.842;2023-12-04T00:28:23;98551.78;;;-1.22;77.00
80542;BME280;69870;51.460;8.842;2023-12-04T00:30:49;98553.13;;;-1.25;76.78
80542;BME280;69870;51.460;8.842;2023-12-04T00:33:16;98541.66;;;-1.25;76.94
80542;BME280;69870;51.460;8.842;2023-12-04T00:35:43;98542.72;;;-1.21;76.84
80542;BME280;69870;51.460;8.842;2023-12-04T00:38:10;98547.78;;;-1.25;77.14
80542;BME280;69870;51.460;8.842;2023-12-04T00:40:37;98538.47;;;-1.22;76.91
80542;BME280;69870;51.460;8.842;2023-12-04T00:43:03;98543.25;;;-1.24;76.85
80542;BME280;69870;51.460;8.842;2023-12-04T00:45:30;98543.22;;;-1.19;76.81
80542;BME280;69870;51.460;8.842;2023-12-04T00:47:56;98542.16;;;-1.18;77.00
80542;BME280;69870;51.460;8.842;2023-12-04T00:50:23;98538.41;;;-1.17;76.75
80542;BME280;69870;51.460;8.842;2023-12-04T00:52:49;98541.38;;;-1.19;76.82
80542;BME280;69870;51.460;8.842;2023-12-04T00:55:17;98538.19;;;-1.26;77.70
80542;BME280;69870;51.460;8.842;2023-12-04T00:57:44;98529.91;;;-1.19;76.97
80542;BME280;69870;51.460;8.842;2023-12-04T01:00:12;98530.19;;;-1.26;77.63
80542;BME280;69870;51.460;8.842;2023-12-04T01:02:39;98527.00;;;-1.28;78.06
80542;BME280;69870;51.460;8.842;2023-12-04T01:05:06;98513.94;;;-1.29;77.33
80542;BME280;69870;51.460;8.842;2023-12-04T01:07:33;98517.38;;;-1.24;78.01
80542;BME280;69870;51.460;8.842;2023-12-04T01:09:59;98517.13;;;-1.22;77.70
80542;BME280;69870;51.460;8.842;2023-12-04T01:12:27;98516.31;;;-1.18;77.80
80542;BME280;69870;51.460;8.842;2023-12-04T01:14:54;98507.75;;;-1.15;77.33
80542;BME280;69870;51.460;8.842;2023-12-04T01:17:20;98503.22;;;-1.14;77.37
80542;BME280;69870;51.460;8.842;2023-12-04T01:19:47;98500.53;;;-1.14;77.11
80542;BME280;69870;51.460;8.842;2023-12-04T01:22:13;98503.72;;;-1.12;77.17
80542;BME280;69870;51.460;8.842;2023-12-04T01:24:40;98497.34;;;-1.16;77.49
80542;BME280;69870;51.460;8.842;2023-12-04T01:27:06;98487.72;;;-1.12;76.97
80542;BME280;69870;51.460;8.842;2023-12-04T01:29:34;98491.72;;;-1.10;76.58
80542;BME280;69870;51.460;8.842;2023-12-04T01:32:01;98491.97;;;-1.06;76.48
80542;BME280;69870;51.460;8.842;2023-12-04T01:34:27;98483.44;;;-1.08;76.62
80542;BME280;69870;51.460;8.842;2023-12-04T01:36:54;98481.84;;;-1.09;76.88
80542;BME280;69870;51.460;8.842;2023-12-04T01:39:20;98485.84;;;-1.07;76.49
80542;BME280;69870;51.460;8.842;2023-12-04T01:41:47;98483.94;;;-1.06;76.38
80542;BME280;69870;51.460;8.842;2023-12-04T01:44:13;98486.63;;;-1.06;76.32
80542;BME280;69870;51.460;8.842;2023-12-04T01:46:41;98487.13;;;-1.04;76.53
80542;BME280;69870;51.460;8.842;2023-12-04T01:49:08;98475.94;;;-1.06;76.72
80542;BME280;69870;51.460;8.842;2023-12-04T01:51:35;98473.03;;;-1.05;76.65
80542;BME280;69870;51.460;8.842;2023-12-04T01:54:03;98472.75;;;-1.03;76.48
80542;BME280;69870;51.460;8.842;2023-12-04T01:56:31;98470.88;;;-1.03;76.29
80542;BME280;69870;51.460;8.842;2023-12-04T01:58:58;98473.78;;;-0.99;76.14
80542;BME280;69870;51.460;8.842;2023-12-04T02:01:24;98458.03;;;-0.96;76.40
80542;BME280;69870;51.460;8.842;2023-12-04T02:03:54;98463.91;;;-0.94;75.87
80542;BME280;69870;51.460;8.842;2023-12-04T02:06:21;98457.75;;;-0.94;75.91
80542;BME280;69870;51.460;8.842;2023-12-04T02:08:48;98460.41;;;-0.94;76.57
80542;BME280;69870;51.460;8.842;2023-12-04T02:11:15;98457.47;;;-0.93;76.44
80542;BME280;69870;51.460;8.842;2023-12-04T02:13:42;98464.75;;;-1.03;75.75
80542;BME280;69870;51.460;8.842;2023-12-04T02:16:10;98459.94;;;-1.01;75.67
80542;BME280;69870;51.460;8.842;2023-12-04T02:18:39;98453.56;;;-1.05;76.17
80542;BME280;69870;51.460;8.842;2023-12-04T02:21:07;98452.16;;;-0.98;75.67
80542;BME280;69870;51.460;8.842;2023-12-04T02:23:34;98444.13;;;-0.93;75.53
80542;BME280;69870;51.460;8.842;2023-12-04T02:26:07;98452.41;;;-0.94;75.83
80542;BME280;69870;51.460;8.842;2023-12-04T02:28:35;98448.66;;;-0.93;75.58
80542;BME280;69870;51.460;8.842;2023-12-04T02:31:04;98443.28;;;-0.88;75.23
80542;BME280;69870;51.460;8.842;2023-12-04T02:33:33;98436.69;;;-0.96;75.39
80542;BME280;69870;51.460;8.842;2023-12-04T02:36:01;98429.72;;;-0.92;75.22
80542;BME280;69870;51.460;8.842;2023-12-04T02:38:29;98424.19;;;-1.00;74.70
80542;BME280;69870;51.460;8.842;2023-12-04T02:40:56;98416.63;;;-0.93;75.34
80542;BME280;69870;51.460;8.842;2023-12-04T02:43:24;98417.41;;;-0.88;75.16
80542;BME280;69870;51.460;8.842;2023-12-04T02:45:50;98414.47;;;-0.86;75.08
80542;BME280;69870;51.460;8.842;2023-12-04T02:48:17;98413.13;;;-0.84;74.76
80542;BME280;69870;51.460;8.842;2023-12-04T02:50:43;98404.81;;;-0.82;75.65
80542;BME280;69870;51.460;8.842;2023-12-04T02:53:10;98404.31;;;-0.84;75.38
80542;BME280;69870;51.460;8.842;2023-12-04T02:55:36;98412.31;;;-0.84;75.49
80542;BME280;69870;51.460;8.842;2023-12-04T02:58:03;98402.16;;;-0.82;75.31
80542;BME280;69870;51.460;8.842;2023-12-04T03:00:31;98397.09;;;-0.84;74.49
80542;BME280;69870;51.460;8.842;2023-12-04T03:02:58;98399.03;;;-0.89;74.88
80542;BME280;69870;51.460;8.842;2023-12-04T03:05:25;98399.53;;;-0.87;74.70
80542;BME280;69870;51.460;8.842;2023-12-04T03:07:51;98401.94;;;-0.91;75.23
80542;BME280;69870;51.460;8.842;2023-12-04T03:10:17;98392.91;;;-0.95;74.81
80542;BME280;69870;51.460;8.842;2023-12-04T03:12:43;98386.22;;;-0.92;74.52
80542;BME280;69870;51.460;8.842;2023-12-04T03:15:10;98393.19;;;-0.96;75.20
80542;BME280;69870;51.460;8.842;2023-12-04T03:17:39;98386.03;;;-1.01;74.69
80542;BME280;69870;51.460;8.842;2023-12-04T03:20:06;98381.22;;;-0.99;75.02
80542;BME280;69870;51.460;8.842;2023-12-04T03:22:34;98387.34;;;-0.98;74.62
80542;BME280;69870;51.460;8.842;2023-12-04T03:25:00;98377.19;;;-0.96;74.63
80542;BME280;69870;51.460;8.842;2023-12-04T03:27:27;98376.38;;;-0.97;74.71
80542;BME280;69870;51.460;8.842;2023-12-04T03:29:53;98367.09;;;-1.04;74.74
80542;BME280;69870;51.460;8.842;2023-12-04T03:32:20;98374.88;;;-1.08;73.86
80542;BME280;69870;51.460;8.842;2023-12-04T03:34:48;98364.41;;;-1.04;74.22
80542;BME280;69870;51.460;8.842;2023-12-04T03:37:14;98356.69;;;-1.01;74.28
80542;BME280;69870;51.460;8.842;2023-12-04T03:39:41;98360.16;;;-1.00;74.87
80542;BME280;69870;51.460;8.842;2023-12-04T03:42:07;98352.69;;;-1.03;74.58
80542;BME280;69870;51.460;8.842;2023-12-04T03:44:34;98349.22;;;-1.04;74.53
80542;BME280;69870;51.460;8.842;2023-12-04T03:47:00;98350.81;;;-1.03;74.33
80542;BME280;69870;51.460;8.842;2023-12-04T03:49:27;98346.81;;;-1.00;74.28
80542;BME280;69870;51.460;8.842;2023-12-04T03:51:55;98340.09;;;-0.98;74.81
80542;BME280;69870;51.460;8.842;2023-12-04T03:54:21;98340.66;;;-1.01;74.47
80542;BME280;69870;51.460;8.842;2023-12-04T03:56:48;98333.97;;;-0.98;74.71
80542;BME280;69870;51.460;8.842;2023-12-04T03:59:14;98328.66;;;-0.98;75.13
80542;BME280;69870;51.460;8.842;2023-12-04T04:01:41;98329.16;;;-0.96;73.97
80542;BME280;69870;51.460;8.842;2023-12-04T04:04:07;98329.38;;;-0.93;74.18
80542;BME280;69870;51.460;8.842;2023-12-04T04:06:34;98335.25;;;-0.91;74.28
80542;BME280;69870;51.460;8.842;2023-12-04T04:09:04;98326.97;;;-0.89;74.81
80542;BME280;69870;51.460;8.842;2023-12-04T04:11:31;98325.38;;;-0.90;73.68
80542;BME280;69870;51.460;8.842;2023-12-04T04:13:57;98324.81;;;-0.87;74.28
80542;BME280;69870;51.460;8.842;2023-12-04T04:16:24;98306.66;;;-0.85;74.62
80542;BME280;69870;51.460;8.842;2023-12-04T04:18:50;98310.16;;;-0.90;74.42
80542;BME280;69870;51.460;8.842;2023-12-04T04:21:17;98314.19;;;-0.92;74.13
80542;BME280;69870;51.460;8.842;2023-12-04T04:23:43;98309.91;;;-0.93;73.86
80542;BME280;69870;51.460;8.842;2023-12-04T04:26:11;98321.38;;;-0.93;73.90
80542;BME280;69870;51.460;8.842;2023-12-04T04:28:38;98316.34;;;-0.94;74.11
80542;BME280;69870;51.460;8.842;2023-12-04T04:31:05;98322.47;;;-0.94;74.62
80542;BME280;69870;51.460;8.842;2023-12-04T04:33:31;98315.56;;;-1.00;74.27
80542;BME280;69870;51.460;8.842;2023-12-04T04:35:58;98317.72;;;-1.02;74.65
80542;BME280;69870;51.460;8.842;2023-12-04T04:38:23;98320.19;;;-1.10;73.94
80542;BME280;69870;51.460;8.842;2023-12-04T04:40:50;98307.88;;;-1.06;74.01
80542;BME280;69870;51.460;8.842;2023-12-04T04:43:19;98305.47;;;-1.03;74.00
80542;BME280;69870;51.460;8.842;2023-12-04T04:45:45;98312.38;;;-1.02;74.74
80542;BME280;69870;51.460;8.842;2023-12-04T04:48:12;98320.44;;;-1.07;73.89
80542;BME280;69870;51.460;8.842;2023-12-04T04:50:38;98312.69;;;-1.08;74.39
80542;BME280;69870;51.460;8.842;2023-12-04T04:53:05;98307.03;;;-1.02;74.85
80542;BME280;69870;51.460;8.842;2023-12-04T04:55:31;98309.69;;;-0.97;74.63
80542;BME280;69870;51.460;8.842;2023-12-04T04:57:58;98310.00;;;-1.03;74.27
80542;BME280;69870;51.460;8.842;2023-12-04T05:00:26;98312.69;;;-1.08;73.64
80542;BME280;69870;51.460;8.842;2023-12-04T05:02:52;98309.50;;;-1.05;73.80
80542;BME280;69870;51.460;8.842;2023-12-04T05:05:19;98306.81;;;-1.05;73.63
80542;BME280;69870;51.460;8.842;2023-12-04T05:07:45;98297.22;;;-1.06;74.02
80542;BME280;69870;51.460;8.842;2023-12-04T05:10:12;98298.56;;;-1.09;74.06
80542;BME280;69870;51.460;8.842;2023-12-04T05:12:39;98298.31;;;-1.07;74.00
80542;BME280;69870;51.460;8.842;2023-12-04T05:15:06;98288.97;;;-1.10;73.83
80542;BME280;69870;51.460;8.842;2023-12-04T05:17:34;98291.41;;;-1.13;73.86
80542;BME280;69870;51.460;8.842;2023-12-04T05:20:00;98292.19;;;-1.13;73.94
80542;BME280;69870;51.460;8.842;2023-12-04T05:22:27;98290.03;;;-1.11;74.22
80542;BME280;69870;51.460;8.842;2023-12-04T05:24:53;98295.13;;;-1.09;73.43
80542;BME280;69870;51.460;8.842;2023-12-04T05:27:20;98294.53;;;-1.06;74.04
80542;BME280;69870;51.460;8.842;2023-12-04T05:29:46;98288.94;;;-1.05;74.51
80542;BME280;69870;51.460;8.842;2023-12-04T05:32:13;98295.06;;;-1.04;74.01
80542;BME280;69870;51.460;8.842;2023-12-04T05:34:41;98295.56;;;-1.02;74.51
80542;BME280;69870;51.460;8.842;2023-12-04T05:37:08;98286.81;;;-1.03;73.44
80542;BME280;69870;51.460;8.842;2023-12-04T05:39:34;98280.94;;;-1.05;73.70
80542;BME280;69870;51.460;8.842;2023-12-04T05:42:01;98283.88;;;-1.06;73.38
80542;BME280;69870;51.460;8.842;2023-12-04T05:44:28;98285.47;;;-1.05;74.02
80542;BME280;69870;51.460;8.842;2023-12-04T05:46:55;98282.31;;;-1.07;73.58
80542;BME280;69870;51.460;8.842;2023-12-04T05:49:21;98283.88;;;-1.06;73.60
80542;BME280;69870;51.460;8.842;2023-12-04T05:51:49;98286.34;;;-1.15;73.58
80542;BME280;69870;51.460;8.842;2023-12-04T05:54:16;98286.34;;;-1.15;73.89
80542;BME280;69870;51.460;8.842;2023-12-04T05:56:42;98278.31;;;-1.10;73.95
80542;BME280;69870;51.460;8.842;2023-12-04T05:59:09;98282.31;;;-1.07;73.93
80542;BME280;69870;51.460;8.842;2023-12-04T06:01:36;98283.09;;;-1.07;73.67
80542;BME280;69870;51.460;8.842;2023-12-04T06:04:03;98274.53;;;-1.04;73.59
80542;BME280;69870;51.460;8.842;2023-12-04T06:06:30;98280.94;;;-1.05;73.39
80542;BME280;69870;51.460;8.842;2023-12-04T06:08:57;98274.81;;;-1.05;73.25
80542;BME280;69870;51.460;8.842;2023-12-04T06:11:24;98274.81;;;-1.05;73.41
80542;BME280;69870;51.460;8.842;2023-12-04T06:13:51;98263.63;;;-1.07;73.29
80542;BME280;69870;51.460;8.842;2023-12-04T06:16:17;98264.97;;;-1.10;73.09
80542;BME280;69870;51.460;8.842;2023-12-04T06:18:44;98254.31;;;-1.10;73.45
80542;BME280;69870;51.460;8.842;2023-12-04T06:21:10;98251.63;;;-1.10;72.79
80542;BME280;69870;51.460;8.842;2023-12-04T06:23:37;98247.66;;;-1.12;73.82
80542;BME280;69870;51.460;8.842;2023-12-04T06:26:07;98251.13;;;-1.12;73.50
80542;BME280;69870;51.460;8.842;2023-12-04T06:28:35;98247.66;;;-1.12;73.28
80542;BME280;69870;51.460;8.842;2023-12-04T06:31:02;98246.06;;;-1.13;72.84
80542;BME280;69870;51.460;8.842;2023-12-04T06:33:29;98249.84;;;-1.19;73.22
80542;BME280;69870;51.460;8.842;2023-12-04T06:35:56;98235.97;;;-1.16;73.18
80542;BME280;69870;51.460;8.842;2023-12-04T06:38:24;98236.19;;;-1.13;73.36
80542;BME280;69870;51.460;8.842;2023-12-04T06:40:51;98232.16;;;-1.10;73.46
80542;BME280;69870;51.460;8.842;2023-12-04T06:43:20;98234.28;;;-1.07;72.56
80542;BME280;69870;51.460;8.842;2023-12-04T06:45:48;98226.28;;;-1.07;72.75
80542;BME280;69870;51.460;8.842;2023-12-04T06:48:15;98229.47;;;-1.05;72.81
80542;BME280;69870;51.460;8.842;2023-12-04T06:50:43;98240.63;;;-1.03;73.04
80542;BME280;69870;51.460;8.842;2023-12-04T06:53:09;98234.75;;;-1.00;72.46
80542;BME280;69870;51.460;8.842;2023-12-04T06:55:36;98231.00;;;-0.99;72.48
80542;BME280;69870;51.460;8.842;2023-12-04T06:58:02;98226.47;;;-0.99;73.21
80542;BME280;69870;51.460;8.842;2023-12-04T07:00:30;98227.25;;;-0.98;72.72
80542;BME280;69870;51.460;8.842;2023-12-04T07:02:57;98224.59;;;-0.98;72.63
80542;BME280;69870;51.460;8.842;2023-12-04T07:05:23;98225.09;;;-0.96;72.05
80542;BME280;69870;51.460;8.842;2023-12-04T07:07:50;98230.16;;;-0.95;71.90
80542;BME280;69870;51.460;8.842;2023-12-04T07:10:15;98227.19;;;-0.93;72.55
80542;BME280;69870;51.460;8.842;2023-12-04T07:12:42;98234.13;;;-0.92;72.64
80542;BME280;69870;51.460;8.842;2023-12-04T07:15:09;98223.47;;;-0.92;71.92
80542;BME280;69870;51.460;8.842;2023-12-04T07:17:39;98221.59;;;-0.92;72.55
80542;BME280;69870;51.460;8.842;2023-12-04T07:20:06;98227.16;;;-0.88;72.42
80542;BME280;69870;51.460;8.842;2023-12-04T07:22:33;98220.75;;;-0.87;72.67
80542;BME280;69870;51.460;8.842;2023-12-04T07:25:00;98217.00;;;-0.86;72.50
80542;BME280;69870;51.460;8.842;2023-12-04T07:27:26;98210.84;;;-0.87;71.75
80542;BME280;69870;51.460;8.842;2023-12-04T07:29:53;98210.59;;;-0.85;72.54
80542;BME280;69870;51.460;8.842;2023-12-04T07:32:19;98208.72;;;-0.85;72.38
80542;BME280;69870;51.460;8.842;2023-12-04T07:34:47;98211.09;;;-0.83;72.32
80542;BME280;69870;51.460;8.842;2023-12-04T07:37:14;98203.59;;;-0.81;71.46
80542;BME280;69870;51.460;8.842;2023-12-04T07:39:40;98197.75;;;-0.83;71.73
80542;BME280;69870;51.460;8.842;2023-12-04T07:42:08;98206.06;;;-0.85;71.16
80542;BME280;69870;51.460;8.842;2023-12-04T07:44:35;98194.56;;;-0.85;71.31
80542;BME280;69870;51.460;8.842;2023-12-04T07:47:02;98196.16;;;-0.84;71.75
80542;BME280;69870;51.460;8.842;2023-12-04T07:49:28;98182.53;;;-0.83;71.58
80542;BME280;69870;51.460;8.842;2023-12-04T07:51:56;98182.53;;;-0.83;71.38
80542;BME280;69870;51.460;8.842;2023-12-04T07:54:23;98183.59;;;-0.84;70.81
80542;BME280;69870;51.460;8.842;2023-12-04T07:56:51;98183.91;;;-0.85;70.43
80542;BME280;69870;51.460;8.842;2023-12-04T07:59:17;98176.97;;;-0.86;70.69
80542;BME280;69870;51.460;8.842;2023-12-04T08:01:44;98182.88;;;-0.89;71.21
80542;BME280;69870;51.460;8.842;2023-12-04T08:04:11;98184.75;;;-0.90;71.07
80542;BME280;69870;51.460;8.842;2023-12-04T08:06:38;98177.59;;;-0.94;70.17
80542;BME280;69870;51.460;8.842;2023-12-04T08:09:05;98185.31;;;-0.93;70.73
80542;BME280;69870;51.460;8.842;2023-12-04T08:11:35;98184.16;;;-0.87;70.17
80542;BME280;69870;51.460;8.842;2023-12-04T08:14:02;98183.91;;;-0.85;69.56
80542;BME280;69870;51.460;8.842;2023-12-04T08:16:28;98188.59;;;-0.77;70.26
80542;BME280;69870;51.460;8.842;2023-12-04T08:18:55;98183.50;;;-0.73;69.70
80542;BME280;69870;51.460;8.842;2023-12-04T08:21:22;98186.19;;;-0.73;70.03
80542;BME280;69870;51.460;8.842;2023-12-04T08:23:47;98188.00;;;-0.69;69.82
80542;BME280;69870;51.460;8.842;2023-12-04T08:26:21;98190.09;;;-0.66;69.21
80542;BME280;69870;51.460;8.842;2023-12-04T08:28:47;98182.88;;;-0.65;69.64
80542;BME280;69870;51.460;8.842;2023-12-04T08:31:14;98183.38;;;-0.63;69.60
80542;BME280;69870;51.460;8.842;2023-12-04T08:33:41;98183.16;;;-0.67;68.75
80542;BME280;69870;51.460;8.842;2023-12-04T08:36:08;98178.69;;;-0.71;69.12
80542;BME280;69870;51.460;8.842;2023-12-04T08:38:35;98181.28;;;-0.66;69.58
80542;BME280;69870;51.460;8.842;2023-12-04T08:41:03;98176.69;;;-0.61;69.54
80542;BME280;69870;51.460;8.842;2023-12-04T08:43:31;98178.25;;;-0.60;68.79
80542;BME280;69870;51.460;8.842;2023-12-04T08:45:58;98172.38;;;-0.57;69.08
80542;BME280;69870;51.460;8.842;2023-12-04T08:48:25;98161.13;;;-0.54;68.51
80542;BME280;69870;51.460;8.842;2023-12-04T08:50:52;98166.97;;;-0.52;68.66
80542;BME280;69870;51.460;8.842;2023-12-04T08:53:18;98163.72;;;-0.49;68.27
80542;BME280;69870;51.460;8.842;2023-12-04T08:55:45;98167.69;;;-0.46;68.45
80542;BME280;69870;51.460;8.842;2023-12-04T08:58:12;98162.63;;;-0.48;68.38
80542;BME280;69870;51.460;8.842;2023-12-04T09:00:40;98171.97;;;-0.45;68.51
80542;BME280;69870;51.460;8.842;2023-12-04T09:03:08;98159.41;;;-0.45;67.89
80542;BME280;69870;51.460;8.842;2023-12-04T09:05:35;98160.41;;;-0.41;68.03
80542;BME280;69870;51.460;8.842;2023-12-04T09:08:02;98161.50;;;-0.42;67.34
80542;BME280;69870;51.460;8.842;2023-12-04T09:10:28;98159.13;;;-0.43;68.08
80542;BME280;69870;51.460;8.842;2023-12-04T09:12:55;98155.44;;;-0.47;67.36
80542;BME280;69870;51.460;8.842;2023-12-04T09:15:22;98155.47;;;-0.52;67.67
80542;BME280;69870;51.460;8.842;2023-12-04T09:17:49;98156.78;;;-0.50;68.20
80542;BME280;69870;51.460;8.842;2023-12-04T09:20:16;98148.28;;;-0.52;68.33
80542;BME280;69870;51.460;8.842;2023-12-04T09:22:42;98153.66;;;-0.57;68.10
80542;BME280;69870;51.460;8.842;2023-12-04T09:25:09;98149.34;;;-0.53;68.17
80542;BME280;69870;51.460;8.842;2023-12-04T09:27:36;98148.34;;;-0.57;68.12
80542;BME280;69870;51.460;8.842;2023-12-04T09:30:03;98152.88;;;-0.57;67.60
80542;BME280;69870;51.460;8.842;2023-12-04T09:32:31;98151.00;;;-0.57;67.68
80542;BME280;69870;51.460;8.842;2023-12-04T09:34:59;98157.44;;;-0.58;68.07
80542;BME280;69870;51.460;8.842;2023-12-04T09:37:25;98154.47;;;-0.56;67.89
80542;BME280;69870;51.460;8.842;2023-12-04T09:39:52;98152.88;;;-0.57;68.66
80542;BME280;69870;51.460;8.842;2023-12-04T09:42:19;98153.66;;;-0.57;68.37
80542;BME280;69870;51.460;8.842;2023-12-04T09:44:47;98155.53;;;-0.57;68.27
80542;BME280;69870;51.460;8.842;2023-12-04T09:47:16;98140.88;;;-0.60;68.37
80542;BME280;69870;51.460;8.842;2023-12-04T09:49:44;98143.63;;;-0.65;68.56
80542;BME280;69870;51.460;8.842;2023-12-04T09:52:12;98136.53;;;-0.75;68.70
80542;BME280;69870;51.460;8.842;2023-12-04T09:54:40;98140.28;;;-0.76;68.45
80542;BME280;69870;51.460;8.842;2023-12-04T09:57:06;98133.16;;;-0.80;69.03
80542;BME280;69870;51.460;8.842;2023-12-04T09:59:33;98128.03;;;-0.77;68.94
80542;BME280;69870;51.460;8.842;2023-12-04T10:02:01;98124.50;;;-0.72;68.35
80542;BME280;69870;51.460;8.842;2023-12-04T10:04:28;98116.44;;;-0.67;69.34
80542;BME280;69870;51.460;8.842;2023-12-04T10:06:54;98110.31;;;-0.67;68.55
80542;BME280;69870;51.460;8.842;2023-12-04T10:09:22;98112.69;;;-0.66;68.45
80542;BME280;69870;51.460;8.842;2023-12-04T10:11:50;98102.00;;;-0.66;68.56
80542;BME280;69870;51.460;8.842;2023-12-04T10:14:18;98100.44;;;-0.67;68.67
80542;BME280;69870;51.460;8.842;2023-12-04T10:16:45;98090.25;;;-0.65;68.93
80542;BME280;69870;51.460;8.842;2023-12-04T10:19:19;98079.47;;;-0.60;68.23
80542;BME280;69870;51.460;8.842;2023-12-04T10:21:47;98076.75;;;-0.55;68.48
80542;BME280;69870;51.460;8.842;2023-12-04T10:24:29;98073.03;;;-0.54;68.74
80542;BME280;69870;51.460;8.842;2023-12-04T10:26:56;98063.13;;;-0.53;67.83
80542;BME280;69870;51.460;8.842;2023-12-04T10:29:23;98059.66;;;-0.54;68.16
80542;BME280;69870;51.460;8.842;2023-12-04T10:31:51;98051.41;;;-0.57;68.64
80542;BME280;69870;51.460;8.842;2023-12-04T10:34:18;98047.19;;;-0.58;67.90
80542;BME280;69870;51.460;8.842;2023-12-04T10:36:45;98042.13;;;-0.60;68.36
80542;BME280;69870;51.460;8.842;2023-12-04T10:39:12;98030.06;;;-0.57;68.82
80542;BME280;69870;51.460;8.842;2023-12-04T10:41:41;98024.16;;;-0.54;67.84
80542;BME280;69870;51.460;8.842;2023-12-04T10:44:07;98022.00;;;-0.52;68.73
80542;BME280;69870;51.460;8.842;2023-12-04T10:46:35;98018.47;;;-0.48;68.74
80542;BME280;69870;51.460;8.842;2023-12-04T10:49:03;98018.09;;;-0.41;68.72
80542;BME280;69870;51.460;8.842;2023-12-04T10:51:30;98017.03;;;-0.40;67.81
80542;BME280;69870;51.460;8.842;2023-12-04T10:53:57;98015.91;;;-0.39;67.78
80542;BME280;69870;51.460;8.842;2023-12-04T10:56:27;98011.19;;;-0.42;67.20
80542;BME280;69870;51.460;8.842;2023-12-04T10:58:57;97999.09;;;-0.40;68.19
80542;BME280;69870;51.460;8.842;2023-12-04T11:01:27;97999.91;;;-0.39;68.11
80542;BME280;69870;51.460;8.842;2023-12-04T11:03:56;98007.03;;;-0.35;68.21
80542;BME280;69870;51.460;8.842;2023-12-04T11:06:26;97991.00;;;-0.35;68.09
80542;BME280;69870;51.460;8.842;2023-12-04T11:08:56;97981.31;;;-0.31;68.07
80542;BME280;69870;51.460;8.842;2023-12-04T11:11:27;97986.59;;;-0.26;68.72
80542;BME280;69870;51.460;8.842;2023-12-04T11:13:58;97982.47;;;-0.18;68.42
80542;BME280;69870;51.460;8.842;2023-12-04T11:16:33;97972.47;;;-0.13;68.58
80542;BME280;69870;51.460;8.842;2023-12-04T11:19:09;97975.66;;;-0.11;68.47
80542;BME280;69870;51.460;8.842;2023-12-04T11:21:43;97968.63;;;-0.07;68.34
80542;BME280;69870;51.460;8.842;2023-12-04T11:24:11;97962.41;;;-0.02;67.89
80542;BME280;69870;51.460;8.842;2023-12-04T11:26:39;97967.16;;;0.01;68.57
80542;BME280;69870;51.460;8.842;2023-12-04T11:29:08;97959.66;;;0.03;68.67
80542;BME280;69870;51.460;8.842;2023-12-04T11:31:36;97955.91;;;0.04;68.39
80542;BME280;69870;51.460;8.842;2023-12-04T11:34:03;97955.78;;;-0.05;67.78
80542;BME280;69870;51.460;8.842;2023-12-04T11:36:30;97947.78;;;-0.05;68.71
80542;BME280;69870;51.460;8.842;2023-12-04T11:38:56;97937.66;;;-0.08;68.93
80542;BME280;69870;51.460;8.842;2023-12-04T11:41:24;97934.91;;;-0.03;68.24
80542;BME280;69870;51.460;8.842;2023-12-04T11:43:52;97933.00;;;-0.02;68.03
80542;BME280;69870;51.460;8.842;2023-12-04T11:46:21;97929.06;;;-0.05;68.27
80542;BME280;69870;51.460;8.842;2023-12-04T11:48:49;97934.41;;;-0.05;68.68
80542;BME280;69870;51.460;8.842;2023-12-04T11:51:46;97931.75;;;-0.05;68.77
80542;BME280;69870;51.460;8.842;2023-12-04T11:54:18;97923.44;;;-0.03;68.07
80542;BME280;69870;51.460;8.842;2023-12-04T11:56:56;97919.16;;;-0.04;68.12
80542;BME280;69870;51.460;8.842;2023-12-04T11:59:24;97915.91;;;-0.01;68.00
80542;BME280;69870;51.460;8.842;2023-12-04T12:01:53;97921.44;;;0.03;68.12
80542;BME280;69870;51.460;8.842;2023-12-04T12:04:20;97906.50;;;0.02;68.27
80542;BME280;69870;51.460;8.842;2023-12-04T12:06:47;97907.41;;;-0.03;68.78
80542;BME280;69870;51.460;8.842;2023-12-04T12:09:14;97908.38;;;0.01;68.33
80542;BME280;69870;51.460;8.842;2023-12-04T12:11:41;97903.44;;;0.08;68.11
80542;BME280;69870;51.460;8.842;2023-12-04T12:14:08;97894.53;;;0.13;68.39
80542;BME280;69870;51.460;8.842;2023-12-04T12:16:34;97889.78;;;0.10;68.43
80542;BME280;69870;51.460;8.842;2023-12-04T12:19:02;97887.41;;;0.08;68.24
80542;BME280;69870;51.460;8.842;2023-12-04T12:21:29;97887.59;;;0.12;68.20
80542;BME280;69870;51.460;8.842;2023-12-04T12:23:55;97872.06;;;0.14;68.40
80542;BME280;69870;51.460;8.842;2023-12-04T12:26:22;97876.50;;;0.18;68.23
80542;BME280;69870;51.460;8.842;2023-12-04T12:28:48;97866.63;;;0.19;67.44
80542;BME280;69870;51.460;8.842;2023-12-04T12:31:16;97872.94;;;0.23;67.87
80542;BME280;69870;51.460;8.842;2023-12-04T12:33:42;97862.25;;;0.23;67.58
80542;BME280;69870;51.460;8.842;2023-12-04T12:36:11;97856.31;;;0.26;67.62
80542;BME280;69870;51.460;8.842;2023-12-04T12:38:37;97853.06;;;0.29;68.07
80542;BME280;69870;51.460;8.842;2023-12-04T12:41:06;97852.25;;;0.28;67.94
80542;BME280;69870;51.460;8.842;2023-12-04T12:43:34;97852.25;;;0.28;67.30
80542;BME280;69870;51.460;8.842;2023-12-04T12:46:01;97848.50;;;0.29;67.30
80542;BME280;69870;51.460;8.842;2023-12-04T12:48:32;97844.84;;;0.25;67.44
80542;BME280;69870;51.460;8.842;2023-12-04T12:50:58;97832.25;;;0.26;67.35
80542;BME280;69870;51.460;8.842;2023-12-04T12:53:26;97839.69;;;0.29;67.88
80542;BME280;69870;51.460;8.842;2023-12-04T12:55:53;97832.25;;;0.26;67.42
80542;BME280;69870;51.460;8.842;2023-12-04T12:58:19;97830.09;;;0.28;68.17
80542;BME280;69870;51.460;8.842;2023-12-04T13:00:47;97825.22;;;0.30;67.40